sensor_id;sensor_type;location;lat;lon;timestamp;P1;durP1;ratioP1;P2;durP2;ratioP2
70707;SDS011;58277;47.316;18.908;2023-12-20T00:01:21;58.87;;;13.73;;
70707;SDS011;58277;47.316;18.908;2023-12-20T00:03:44;49.45;;;13.73;;
70707;SDS011;58277;47.316;18.908;2023-12-20T00:06:09;69.60;;;14.48;;
70707;SDS011;58277;47.316;18.908;2023-12-20T00:08:42;58.55;;;13.27;;
70707;SDS011;58277;47.316;18.908;2023-12-20T00:11:04;71.30;;;15.13;;
70707;SDS011;58277;47.316;18.908;2023-12-20T00:13:27;78.97;;;14.80;;
70707;SDS011;58277;47.316;18.908;2023-12-20T00:15:50;57.33;;;14.07;;
70707;SDS011;58277;47.316;18.908;2023-12-20T00:18:14;77.05;;;14.82;;
70707;SDS011;58277;47.316;18.908;2023-12-20T00:20:39;63.85;;;16.13;;
70707;SDS011;58277;47.316;18.908;2023-12-20T00:23:02;52.83;;;13.55;;
70707;SDS011;58277;47.316;18.908;2023-12-20T00:25:25;66.90;;;14.83;;
70707;SDS011;58277;47.316;18.908;2023-12-20T00:27:48;68.25;;;14.98;;
70707;SDS011;58277;47.316;18.908;2023-12-20T00:30:11;67.07;;;16.10;;
70707;SDS011;58277;47.316;18.908;2023-12-20T00:32:35;67.22;;;15.57;;
70707;SDS011;58277;47.316;18.908;2023-12-20T00:34:58;57.65;;;14.43;;
70707;SDS011;58277;47.316;18.908;2023-12-20T00:37:21;55.20;;;15.07;;
70707;SDS011;58277;47.316;18.908;2023-12-20T00:39:44;48.65;;;15.38;;
70707;SDS011;58277;47.316;18.908;2023-12-20T00:42:06;83.85;;;16.10;;
70707;SDS011;58277;47.316;18.908;2023-12-20T00:44:33;78.68;;;15.30;;
70707;SDS011;58277;47.316;18.908;2023-12-20T00:46:55;76.47;;;16.33;;
70707;SDS011;58277;47.316;18.908;2023-12-20T00:49:18;70.87;;;16.63;;
70707;SDS011;58277;47.316;18.908;2023-12-20T00:51:41;67.40;;;15.63;;
70707;SDS011;58277;47.316;18.908;2023-12-20T00:54:04;63.33;;;15.48;;
70707;SDS011;58277;47.316;18.908;2023-12-20T00:56:27;76.90;;;15.68;;
70707;SDS011;58277;47.316;18.908;2023-12-20T00:58:49;77.15;;;16.33;;
70707;SDS011;58277;47.316;18.908;2023-12-20T01:01:12;63.63;;;15.43;;
70707;SDS011;58277;47.316;18.908;2023-12-20T01:03:35;56.58;;;15.07;;
70707;SDS011;58277;47.316;18.908;2023-12-20T01:05:58;60.17;;;14.38;;
70707;SDS011;58277;47.316;18.908;2023-12-20T01:08:21;86.78;;;16.08;;
70707;SDS011;58277;47.316;18.908;2023-12-20T01:10:45;62.47;;;15.60;;
70707;SDS011;58277;47.316;18.908;2023-12-20T01:13:09;73.07;;;15.83;;
70707;SDS011;58277;47.316;18.908;2023-12-20T01:15:32;79.55;;;17.60;;
70707;SDS011;58277;47.316;18.908;2023-12-20T01:17:55;82.40;;;18.88;;
70707;SDS011;58277;47.316;18.908;2023-12-20T01:20:19;71.57;;;17.67;;
70707;SDS011;58277;47.316;18.908;2023-12-20T01:22:42;70.30;;;17.70;;
70707;SDS011;58277;47.316;18.908;2023-12-20T01:25:05;67.83;;;17.47;;
70707;SDS011;58277;47.316;18.908;2023-12-20T01:27:29;64.72;;;17.00;;
70707;SDS011;58277;47.316;18.908;2023-12-20T01:29:53;72.40;;;17.15;;
70707;SDS011;58277;47.316;18.908;2023-12-20T01:32:16;68.30;;;16.58;;
70707;SDS011;58277;47.316;18.908;2023-12-20T01:34:39;85.30;;;17.30;;
70707;SDS011;58277;47.316;18.908;2023-12-20T01:37:02;56.80;;;15.93;;
70707;SDS011;58277;47.316;18.908;2023-12-20T01:39:26;76.75;;;16.38;;
70707;SDS011;58277;47.316;18.908;2023-12-20T01:41:51;97.47;;;17.10;;
70707;SDS011;58277;47.316;18.908;2023-12-20T01:44:14;83.32;;;16.80;;
70707;SDS011;58277;47.316;18.908;2023-12-20T01:46:37;91.78;;;17.23;;
70707;SDS011;58277;47.316;18.908;2023-12-20T01:49:00;71.03;;;17.40;;
70707;SDS011;58277;47.316;18.908;2023-12-20T01:51:23;104.10;;;17.52;;
70707;SDS011;58277;47.316;18.908;2023-12-20T01:53:46;75.25;;;16.77;;
70707;SDS011;58277;47.316;18.908;2023-12-20T01:56:10;62.47;;;15.38;;
70707;SDS011;58277;47.316;18.908;2023-12-20T01:58:33;55.80;;;15.00;;
70707;SDS011;58277;47.316;18.908;2023-12-20T02:00:57;59.27;;;15.97;;
70707;SDS011;58277;47.316;18.908;2023-12-20T02:03:20;83.45;;;16.90;;
70707;SDS011;58277;47.316;18.908;2023-12-20T02:05:43;69.03;;;16.50;;
70707;SDS011;58277;47.316;18.908;2023-12-20T02:08:08;62.97;;;15.23;;
70707;SDS011;58277;47.316;18.908;2023-12-20T02:10:30;57.70;;;15.82;;
70707;SDS011;58277;47.316;18.908;2023-12-20T02:12:53;51.90;;;14.50;;
70707;SDS011;58277;47.316;18.908;2023-12-20T02:15:16;62.92;;;15.48;;
70707;SDS011;58277;47.316;18.908;2023-12-20T02:17:39;72.88;;;16.85;;
70707;SDS011;58277;47.316;18.908;2023-12-20T02:20:02;67.95;;;16.85;;
70707;SDS011;58277;47.316;18.908;2023-12-20T02:22:25;82.55;;;16.73;;
70707;SDS011;58277;47.316;18.908;2023-12-20T02:24:48;59.37;;;15.27;;
70707;SDS011;58277;47.316;18.908;2023-12-20T02:27:11;61.10;;;16.50;;
70707;SDS011;58277;47.316;18.908;2023-12-20T02:29:34;77.00;;;17.65;;
70707;SDS011;58277;47.316;18.908;2023-12-20T02:31:57;66.60;;;16.45;;
70707;SDS011;58277;47.316;18.908;2023-12-20T02:34:20;78.18;;;16.60;;
70707;SDS011;58277;47.316;18.908;2023-12-20T02:36:43;71.97;;;18.10;;
70707;SDS011;58277;47.316;18.908;2023-12-20T02:39:05;71.15;;;17.77;;
70707;SDS011;58277;47.316;18.908;2023-12-20T02:41:28;67.03;;;17.02;;
70707;SDS011;58277;47.316;18.908;2023-12-20T02:43:51;64.97;;;15.63;;
70707;SDS011;58277;47.316;18.908;2023-12-20T02:46:14;64.43;;;16.73;;
70707;SDS011;58277;47.316;18.908;2023-12-20T02:48:39;66.87;;;16.57;;
70707;SDS011;58277;47.316;18.908;2023-12-20T02:51:02;100.85;;;18.95;;
70707;SDS011;58277;47.316;18.908;2023-12-20T02:53:25;70.43;;;16.80;;
70707;SDS011;58277;47.316;18.908;2023-12-20T02:55:47;81.25;;;18.17;;
70707;SDS011;58277;47.316;18.908;2023-12-20T02:58:10;58.30;;;17.52;;
70707;SDS011;58277;47.316;18.908;2023-12-20T03:00:33;99.93;;;18.73;;
70707;SDS011;58277;47.316;18.908;2023-12-20T03:02:55;111.97;;;18.95;;
70707;SDS011;58277;47.316;18.908;2023-12-20T03:05:18;94.93;;;17.77;;
70707;SDS011;58277;47.316;18.908;2023-12-20T03:07:41;78.97;;;16.75;;
70707;SDS011;58277;47.316;18.908;2023-12-20T03:10:04;68.85;;;17.63;;
70707;SDS011;58277;47.316;18.908;2023-12-20T03:12:41;84.83;;;18.73;;
70707;SDS011;58277;47.316;18.908;2023-12-20T03:15:04;89.00;;;18.67;;
70707;SDS011;58277;47.316;18.908;2023-12-20T03:17:27;96.97;;;19.02;;
70707;SDS011;58277;47.316;18.908;2023-12-20T03:19:50;87.53;;;17.33;;
70707;SDS011;58277;47.316;18.908;2023-12-20T03:22:14;118.18;;;19.23;;
70707;SDS011;58277;47.316;18.908;2023-12-20T03:24:37;95.00;;;19.23;;
70707;SDS011;58277;47.316;18.908;2023-12-20T03:27:00;80.32;;;18.38;;
70707;SDS011;58277;47.316;18.908;2023-12-20T03:29:24;90.38;;;18.77;;
70707;SDS011;58277;47.316;18.908;2023-12-20T03:31:47;72.43;;;18.50;;
70707;SDS011;58277;47.316;18.908;2023-12-20T03:34:10;73.68;;;16.95;;
70707;SDS011;58277;47.316;18.908;2023-12-20T03:36:33;107.43;;;18.37;;
70707;SDS011;58277;47.316;18.908;2023-12-20T03:38:56;82.50;;;17.20;;
70707;SDS011;58277;47.316;18.908;2023-12-20T03:41:19;77.40;;;15.85;;
70707;SDS011;58277;47.316;18.908;2023-12-20T03:43:43;68.03;;;16.88;;
70707;SDS011;58277;47.316;18.908;2023-12-20T03:46:07;54.25;;;15.85;;
70707;SDS011;58277;47.316;18.908;2023-12-20T03:48:30;70.33;;;17.20;;
70707;SDS011;58277;47.316;18.908;2023-12-20T03:50:53;65.82;;;16.25;;
70707;SDS011;58277;47.316;18.908;2023-12-20T03:53:16;98.22;;;17.42;;
70707;SDS011;58277;47.316;18.908;2023-12-20T03:55:39;124.68;;;19.45;;
70707;SDS011;58277;47.316;18.908;2023-12-20T03:58:01;102.25;;;18.95;;
70707;SDS011;58277;47.316;18.908;2023-12-20T04:00:24;70.93;;;16.53;;
70707;SDS011;58277;47.316;18.908;2023-12-20T04:02:47;54.92;;;15.80;;
70707;SDS011;58277;47.316;18.908;2023-12-20T04:05:10;58.58;;;15.27;;
70707;SDS011;58277;47.316;18.908;2023-12-20T04:07:33;86.20;;;17.15;;
70707;SDS011;58277;47.316;18.908;2023-12-20T04:09:56;67.75;;;16.10;;
70707;SDS011;58277;47.316;18.908;2023-12-20T04:12:19;86.57;;;18.60;;
70707;SDS011;58277;47.316;18.908;2023-12-20T04:14:42;97.88;;;16.35;;
70707;SDS011;58277;47.316;18.908;2023-12-20T04:17:06;91.70;;;16.85;;
70707;SDS011;58277;47.316;18.908;2023-12-20T04:19:29;80.18;;;16.15;;
70707;SDS011;58277;47.316;18.908;2023-12-20T04:21:52;54.28;;;15.23;;
70707;SDS011;58277;47.316;18.908;2023-12-20T04:24:15;77.17;;;17.87;;
70707;SDS011;58277;47.316;18.908;2023-12-20T04:26:39;66.85;;;16.95;;
70707;SDS011;58277;47.316;18.908;2023-12-20T04:29:02;66.85;;;15.68;;
70707;SDS011;58277;47.316;18.908;2023-12-20T04:31:24;80.47;;;16.70;;
70707;SDS011;58277;47.316;18.908;2023-12-20T04:33:47;87.38;;;16.23;;
70707;SDS011;58277;47.316;18.908;2023-12-20T04:36:10;70.33;;;15.63;;
70707;SDS011;58277;47.316;18.908;2023-12-20T04:38:33;69.82;;;16.10;;
70707;SDS011;58277;47.316;18.908;2023-12-20T04:40:56;57.28;;;15.32;;
70707;SDS011;58277;47.316;18.908;2023-12-20T04:43:19;48.38;;;15.32;;
70707;SDS011;58277;47.316;18.908;2023-12-20T04:45:42;107.55;;;16.67;;
70707;SDS011;58277;47.316;18.908;2023-12-20T04:48:06;96.83;;;18.57;;
70707;SDS011;58277;47.316;18.908;2023-12-20T04:50:34;60.58;;;15.27;;
70707;SDS011;58277;47.316;18.908;2023-12-20T04:52:57;69.80;;;16.35;;
70707;SDS011;58277;47.316;18.908;2023-12-20T04:55:20;121.00;;;18.00;;
70707;SDS011;58277;47.316;18.908;2023-12-20T04:57:43;96.85;;;16.15;;
70707;SDS011;58277;47.316;18.908;2023-12-20T05:00:06;88.50;;;15.97;;
70707;SDS011;58277;47.316;18.908;2023-12-20T05:02:50;86.78;;;16.13;;
70707;SDS011;58277;47.316;18.908;2023-12-20T05:05:13;89.00;;;16.25;;
70707;SDS011;58277;47.316;18.908;2023-12-20T05:07:37;69.28;;;16.45;;
70707;SDS011;58277;47.316;18.908;2023-12-20T05:10:00;70.22;;;14.77;;
70707;SDS011;58277;47.316;18.908;2023-12-20T05:12:23;77.40;;;15.87;;
70707;SDS011;58277;47.316;18.908;2023-12-20T05:14:46;63.08;;;15.55;;
70707;SDS011;58277;47.316;18.908;2023-12-20T05:17:09;59.42;;;15.50;;
70707;SDS011;58277;47.316;18.908;2023-12-20T05:19:32;97.30;;;15.65;;
70707;SDS011;58277;47.316;18.908;2023-12-20T05:21:58;67.60;;;16.10;;
70707;SDS011;58277;47.316;18.908;2023-12-20T05:24:21;113.27;;;18.13;;
70707;SDS011;58277;47.316;18.908;2023-12-20T05:26:44;70.70;;;17.10;;
70707;SDS011;58277;47.316;18.908;2023-12-20T05:29:07;79.97;;;16.65;;
70707;SDS011;58277;47.316;18.908;2023-12-20T05:31:30;67.50;;;16.00;;
70707;SDS011;58277;47.316;18.908;2023-12-20T05:33:54;69.97;;;15.15;;
70707;SDS011;58277;47.316;18.908;2023-12-20T05:36:17;85.60;;;16.90;;
70707;SDS011;58277;47.316;18.908;2023-12-20T05:38:41;58.70;;;14.88;;
70707;SDS011;58277;47.316;18.908;2023-12-20T05:41:04;86.35;;;17.45;;
70707;SDS011;58277;47.316;18.908;2023-12-20T05:43:27;68.55;;;16.58;;
70707;SDS011;58277;47.316;18.908;2023-12-20T05:45:50;76.38;;;15.73;;
70707;SDS011;58277;47.316;18.908;2023-12-20T05:48:13;110.83;;;16.27;;
70707;SDS011;58277;47.316;18.908;2023-12-20T05:50:37;60.97;;;14.15;;
70707;SDS011;58277;47.316;18.908;2023-12-20T05:53:02;96.93;;;15.95;;
70707;SDS011;58277;47.316;18.908;2023-12-20T05:55:25;62.42;;;14.02;;
70707;SDS011;58277;47.316;18.908;2023-12-20T05:57:48;53.30;;;14.32;;
70707;SDS011;58277;47.316;18.908;2023-12-20T06:00:12;63.83;;;14.50;;
70707;SDS011;58277;47.316;18.908;2023-12-20T06:02:37;57.80;;;14.60;;
70707;SDS011;58277;47.316;18.908;2023-12-20T06:05:00;60.25;;;17.63;;
70707;SDS011;58277;47.316;18.908;2023-12-20T06:07:23;56.80;;;14.40;;
70707;SDS011;58277;47.316;18.908;2023-12-20T06:09:46;66.32;;;15.48;;
70707;SDS011;58277;47.316;18.908;2023-12-20T06:12:13;66.90;;;14.47;;
70707;SDS011;58277;47.316;18.908;2023-12-20T06:14:37;57.38;;;14.73;;
70707;SDS011;58277;47.316;18.908;2023-12-20T06:17:00;67.00;;;15.25;;
70707;SDS011;58277;47.316;18.908;2023-12-20T06:19:23;101.50;;;16.13;;
70707;SDS011;58277;47.316;18.908;2023-12-20T06:21:46;61.67;;;15.23;;
70707;SDS011;58277;47.316;18.908;2023-12-20T06:24:10;117.50;;;17.13;;
70707;SDS011;58277;47.316;18.908;2023-12-20T06:26:35;112.45;;;17.20;;
70707;SDS011;58277;47.316;18.908;2023-12-20T06:28:58;81.18;;;16.92;;
70707;SDS011;58277;47.316;18.908;2023-12-20T06:31:21;79.35;;;16.15;;
70707;SDS011;58277;47.316;18.908;2023-12-20T06:33:44;62.78;;;17.33;;
70707;SDS011;58277;47.316;18.908;2023-12-20T06:36:07;69.60;;;16.23;;
70707;SDS011;58277;47.316;18.908;2023-12-20T06:38:36;82.60;;;15.90;;
70707;SDS011;58277;47.316;18.908;2023-12-20T06:40:59;64.50;;;16.60;;
70707;SDS011;58277;47.316;18.908;2023-12-20T06:43:22;60.60;;;15.85;;
70707;SDS011;58277;47.316;18.908;2023-12-20T06:46:04;68.22;;;15.98;;
70707;SDS011;58277;47.316;18.908;2023-12-20T06:48:27;81.40;;;15.90;;
70707;SDS011;58277;47.316;18.908;2023-12-20T06:50:50;74.63;;;16.33;;
70707;SDS011;58277;47.316;18.908;2023-12-20T06:53:13;60.97;;;16.52;;
70707;SDS011;58277;47.316;18.908;2023-12-20T06:55:36;64.50;;;17.10;;
70707;SDS011;58277;47.316;18.908;2023-12-20T06:58:01;64.05;;;15.77;;
70707;SDS011;58277;47.316;18.908;2023-12-20T07:00:26;70.67;;;15.37;;
70707;SDS011;58277;47.316;18.908;2023-12-20T07:02:51;74.40;;;14.98;;
70707;SDS011;58277;47.316;18.908;2023-12-20T07:05:18;49.83;;;14.55;;
70707;SDS011;58277;47.316;18.908;2023-12-20T07:07:43;52.63;;;14.15;;
70707;SDS011;58277;47.316;18.908;2023-12-20T07:10:07;49.70;;;14.73;;
70707;SDS011;58277;47.316;18.908;2023-12-20T07:12:33;57.30;;;13.77;;
70707;SDS011;58277;47.316;18.908;2023-12-20T07:14:56;53.85;;;15.68;;
70707;SDS011;58277;47.316;18.908;2023-12-20T07:17:19;66.93;;;17.27;;
70707;SDS011;58277;47.316;18.908;2023-12-20T07:19:42;48.40;;;14.18;;
70707;SDS011;58277;47.316;18.908;2023-12-20T07:22:06;49.67;;;13.88;;
70707;SDS011;58277;47.316;18.908;2023-12-20T07:24:29;57.50;;;13.93;;
70707;SDS011;58277;47.316;18.908;2023-12-20T07:26:52;55.78;;;14.23;;
70707;SDS011;58277;47.316;18.908;2023-12-20T07:29:15;45.80;;;13.13;;
70707;SDS011;58277;47.316;18.908;2023-12-20T07:31:38;41.88;;;12.85;;
70707;SDS011;58277;47.316;18.908;2023-12-20T07:34:01;44.92;;;13.20;;
70707;SDS011;58277;47.316;18.908;2023-12-20T07:36:24;52.20;;;14.13;;
70707;SDS011;58277;47.316;18.908;2023-12-20T07:38:48;45.90;;;13.10;;
70707;SDS011;58277;47.316;18.908;2023-12-20T07:41:11;44.45;;;12.80;;
70707;SDS011;58277;47.316;18.908;2023-12-20T07:43:34;44.92;;;13.38;;
70707;SDS011;58277;47.316;18.908;2023-12-20T07:45:57;49.13;;;13.35;;
70707;SDS011;58277;47.316;18.908;2023-12-20T07:48:20;53.17;;;13.90;;
70707;SDS011;58277;47.316;18.908;2023-12-20T07:50:43;41.85;;;13.13;;
70707;SDS011;58277;47.316;18.908;2023-12-20T07:53:07;54.08;;;15.80;;
70707;SDS011;58277;47.316;18.908;2023-12-20T07:55:30;50.60;;;15.50;;
70707;SDS011;58277;47.316;18.908;2023-12-20T07:57:53;58.35;;;14.90;;
70707;SDS011;58277;47.316;18.908;2023-12-20T08:00:17;50.37;;;14.53;;
70707;SDS011;58277;47.316;18.908;2023-12-20T08:02:41;51.50;;;14.32;;
70707;SDS011;58277;47.316;18.908;2023-12-20T08:05:04;51.65;;;14.50;;
70707;SDS011;58277;47.316;18.908;2023-12-20T08:07:28;64.18;;;15.73;;
70707;SDS011;58277;47.316;18.908;2023-12-20T08:09:51;47.60;;;15.43;;
70707;SDS011;58277;47.316;18.908;2023-12-20T08:12:15;52.83;;;16.70;;
70707;SDS011;58277;47.316;18.908;2023-12-20T08:14:40;48.97;;;14.82;;
70707;SDS011;58277;47.316;18.908;2023-12-20T08:17:03;51.72;;;15.70;;
70707;SDS011;58277;47.316;18.908;2023-12-20T08:19:26;54.90;;;15.10;;
70707;SDS011;58277;47.316;18.908;2023-12-20T08:21:49;53.92;;;15.45;;
70707;SDS011;58277;47.316;18.908;2023-12-20T08:24:13;46.67;;;14.33;;
70707;SDS011;58277;47.316;18.908;2023-12-20T08:26:39;47.80;;;14.15;;
70707;SDS011;58277;47.316;18.908;2023-12-20T08:29:03;56.90;;;15.25;;
70707;SDS011;58277;47.316;18.908;2023-12-20T08:31:26;52.50;;;15.85;;
70707;SDS011;58277;47.316;18.908;2023-12-20T08:33:49;47.83;;;15.38;;
70707;SDS011;58277;47.316;18.908;2023-12-20T08:36:14;47.57;;;14.80;;
70707;SDS011;58277;47.316;18.908;2023-12-20T08:38:38;49.92;;;16.25;;
70707;SDS011;58277;47.316;18.908;2023-12-20T08:41:01;46.13;;;14.88;;
70707;SDS011;58277;47.316;18.908;2023-12-20T08:43:27;49.42;;;15.55;;
70707;SDS011;58277;47.316;18.908;2023-12-20T08:45:50;50.33;;;15.13;;
70707;SDS011;58277;47.316;18.908;2023-12-20T08:48:14;47.97;;;15.53;;
70707;SDS011;58277;47.316;18.908;2023-12-20T08:50:38;46.25;;;15.38;;
70707;SDS011;58277;47.316;18.908;2023-12-20T08:53:02;65.60;;;15.15;;
70707;SDS011;58277;47.316;18.908;2023-12-20T08:55:25;43.67;;;13.88;;
70707;SDS011;58277;47.316;18.908;2023-12-20T08:57:51;56.10;;;14.98;;
70707;SDS011;58277;47.316;18.908;2023-12-20T09:00:14;51.57;;;15.50;;
70707;SDS011;58277;47.316;18.908;2023-12-20T09:02:38;49.42;;;15.73;;
70707;SDS011;58277;47.316;18.908;2023-12-20T09:05:02;55.88;;;14.63;;
70707;SDS011;58277;47.316;18.908;2023-12-20T09:07:30;45.92;;;14.27;;
70707;SDS011;58277;47.316;18.908;2023-12-20T09:09:55;46.13;;;14.52;;
70707;SDS011;58277;47.316;18.908;2023-12-20T09:12:21;39.43;;;13.30;;
70707;SDS011;58277;47.316;18.908;2023-12-20T09:14:46;46.10;;;13.77;;
70707;SDS011;58277;47.316;18.908;2023-12-20T09:17:09;44.88;;;13.70;;
70707;SDS011;58277;47.316;18.908;2023-12-20T09:19:35;50.05;;;15.73;;
70707;SDS011;58277;47.316;18.908;2023-12-20T09:21:58;43.42;;;14.60;;
70707;SDS011;58277;47.316;18.908;2023-12-20T09:24:22;35.17;;;12.73;;
70707;SDS011;58277;47.316;18.908;2023-12-20T09:26:45;38.05;;;12.65;;
70707;SDS011;58277;47.316;18.908;2023-12-20T09:29:08;38.22;;;13.25;;
70707;SDS011;58277;47.316;18.908;2023-12-20T09:31:36;39.67;;;13.65;;
70707;SDS011;58277;47.316;18.908;2023-12-20T09:33:59;43.35;;;14.30;;
70707;SDS011;58277;47.316;18.908;2023-12-20T09:36:23;40.37;;;13.77;;
70707;SDS011;58277;47.316;18.908;2023-12-20T09:38:46;46.78;;;14.00;;
70707;SDS011;58277;47.316;18.908;2023-12-20T09:41:10;39.03;;;13.82;;
70707;SDS011;58277;47.316;18.908;2023-12-20T09:43:35;40.00;;;14.60;;
70707;SDS011;58277;47.316;18.908;2023-12-20T09:46:01;39.22;;;14.02;;
70707;SDS011;58277;47.316;18.908;2023-12-20T09:48:29;39.20;;;13.90;;
70707;SDS011;58277;47.316;18.908;2023-12-20T09:50:54;40.60;;;13.48;;
70707;SDS011;58277;47.316;18.908;2023-12-20T09:53:17;42.50;;;14.02;;
70707;SDS011;58277;47.316;18.908;2023-12-20T09:55:42;37.20;;;13.70;;
70707;SDS011;58277;47.316;18.908;2023-12-20T09:58:06;43.33;;;12.65;;
70707;SDS011;58277;47.316;18.908;2023-12-20T10:00:31;41.00;;;13.43;;
70707;SDS011;58277;47.316;18.908;2023-12-20T10:02:57;43.13;;;13.32;;
70707;SDS011;58277;47.316;18.908;2023-12-20T10:05:24;43.22;;;14.88;;
70707;SDS011;58277;47.316;18.908;2023-12-20T10:07:50;40.25;;;13.68;;
70707;SDS011;58277;47.316;18.908;2023-12-20T10:10:14;40.88;;;14.77;;
70707;SDS011;58277;47.316;18.908;2023-12-20T10:12:37;45.60;;;14.97;;
70707;SDS011;58277;47.316;18.908;2023-12-20T10:15:00;37.78;;;13.75;;
70707;SDS011;58277;47.316;18.908;2023-12-20T10:17:24;39.40;;;14.45;;
70707;SDS011;58277;47.316;18.908;2023-12-20T10:19:47;36.00;;;13.32;;
70707;SDS011;58277;47.316;18.908;2023-12-20T10:22:12;37.45;;;13.43;;
70707;SDS011;58277;47.316;18.908;2023-12-20T10:24:35;45.73;;;15.00;;
70707;SDS011;58277;47.316;18.908;2023-12-20T10:27:05;39.35;;;14.23;;
70707;SDS011;58277;47.316;18.908;2023-12-20T10:29:33;38.85;;;14.63;;
70707;SDS011;58277;47.316;18.908;2023-12-20T10:32:00;42.67;;;15.55;;
70707;SDS011;58277;47.316;18.908;2023-12-20T10:34:44;40.50;;;14.43;;
70707;SDS011;58277;47.316;18.908;2023-12-20T10:37:07;39.90;;;14.90;;
70707;SDS011;58277;47.316;18.908;2023-12-20T10:39:30;39.45;;;14.65;;
70707;SDS011;58277;47.316;18.908;2023-12-20T10:41:54;40.08;;;14.27;;
70707;SDS011;58277;47.316;18.908;2023-12-20T10:44:17;35.72;;;13.68;;
70707;SDS011;58277;47.316;18.908;2023-12-20T10:46:40;37.05;;;13.90;;
70707;SDS011;58277;47.316;18.908;2023-12-20T10:49:09;38.53;;;14.90;;
70707;SDS011;58277;47.316;18.908;2023-12-20T10:51:32;46.75;;;18.60;;
70707;SDS011;58277;47.316;18.908;2023-12-20T10:53:57;43.67;;;15.85;;
70707;SDS011;58277;47.316;18.908;2023-12-20T10:56:20;45.08;;;15.85;;
70707;SDS011;58277;47.316;18.908;2023-12-20T10:58:43;40.25;;;15.25;;
70707;SDS011;58277;47.316;18.908;2023-12-20T11:01:08;38.40;;;14.60;;
70707;SDS011;58277;47.316;18.908;2023-12-20T11:03:32;35.42;;;14.05;;
70707;SDS011;58277;47.316;18.908;2023-12-20T11:05:59;38.83;;;15.07;;
70707;SDS011;58277;47.316;18.908;2023-12-20T11:11:34;35.42;;;14.23;;
70707;SDS011;58277;47.316;18.908;2023-12-20T11:14:04;33.27;;;14.03;;
70707;SDS011;58277;47.316;18.908;2023-12-20T11:16:35;40.58;;;15.85;;
70707;SDS011;58277;47.316;18.908;2023-12-20T11:19:13;39.78;;;15.55;;
70707;SDS011;58277;47.316;18.908;2023-12-20T11:21:36;35.13;;;14.60;;
70707;SDS011;58277;47.316;18.908;2023-12-20T11:23:59;36.83;;;14.50;;
70707;SDS011;58277;47.316;18.908;2023-12-20T11:26:26;41.20;;;14.90;;
70707;SDS011;58277;47.316;18.908;2023-12-20T11:28:52;37.05;;;15.20;;
70707;SDS011;58277;47.316;18.908;2023-12-20T11:31:15;38.10;;;16.23;;
70707;SDS011;58277;47.316;18.908;2023-12-20T11:33:39;37.65;;;14.18;;
70707;SDS011;58277;47.316;18.908;2023-12-20T11:36:03;35.35;;;14.90;;
70707;SDS011;58277;47.316;18.908;2023-12-20T11:38:36;34.83;;;14.73;;
70707;SDS011;58277;47.316;18.908;2023-12-20T11:41:00;35.83;;;14.63;;
70707;SDS011;58277;47.316;18.908;2023-12-20T11:43:35;36.63;;;15.52;;
70707;SDS011;58277;47.316;18.908;2023-12-20T11:46:02;34.65;;;14.48;;
70707;SDS011;58277;47.316;18.908;2023-12-20T11:48:27;39.00;;;15.38;;
70707;SDS011;58277;47.316;18.908;2023-12-20T11:50:50;35.63;;;15.03;;
70707;SDS011;58277;47.316;18.908;2023-12-20T11:53:13;37.55;;;15.65;;
70707;SDS011;58277;47.316;18.908;2023-12-20T11:55:36;35.72;;;14.85;;
70707;SDS011;58277;47.316;18.908;2023-12-20T11:58:00;36.85;;;14.77;;
70707;SDS011;58277;47.316;18.908;2023-12-20T12:00:24;37.20;;;15.63;;
70707;SDS011;58277;47.316;18.908;2023-12-20T12:02:57;37.57;;;15.50;;
70707;SDS011;58277;47.316;18.908;2023-12-20T12:05:21;37.33;;;16.40;;
70707;SDS011;58277;47.316;18.908;2023-12-20T12:07:44;36.75;;;15.48;;
70707;SDS011;58277;47.316;18.908;2023-12-20T12:10:08;44.92;;;17.52;;
70707;SDS011;58277;47.316;18.908;2023-12-20T12:12:31;42.70;;;16.88;;
70707;SDS011;58277;47.316;18.908;2023-12-20T12:14:56;39.13;;;15.93;;
70707;SDS011;58277;47.316;18.908;2023-12-20T12:17:20;38.30;;;15.77;;
70707;SDS011;58277;47.316;18.908;2023-12-20T12:19:44;37.30;;;15.60;;
70707;SDS011;58277;47.316;18.908;2023-12-20T12:22:12;38.35;;;16.00;;
70707;SDS011;58277;47.316;18.908;2023-12-20T12:24:37;36.70;;;15.80;;
70707;SDS011;58277;47.316;18.908;2023-12-20T12:27:05;38.00;;;15.50;;
70707;SDS011;58277;47.316;18.908;2023-12-20T12:29:28;34.22;;;13.90;;
70707;SDS011;58277;47.316;18.908;2023-12-20T12:31:52;32.42;;;13.38;;
70707;SDS011;58277;47.316;18.908;2023-12-20T12:34:15;28.65;;;13.00;;
70707;SDS011;58277;47.316;18.908;2023-12-20T12:36:39;29.25;;;13.48;;
70707;SDS011;58277;47.316;18.908;2023-12-20T12:39:02;33.37;;;13.77;;
70707;SDS011;58277;47.316;18.908;2023-12-20T12:41:29;31.30;;;13.90;;
70707;SDS011;58277;47.316;18.908;2023-12-20T12:43:51;30.17;;;14.02;;
70707;SDS011;58277;47.316;18.908;2023-12-20T12:46:15;29.30;;;14.18;;
70707;SDS011;58277;47.316;18.908;2023-12-20T12:48:38;27.77;;;12.68;;
70707;SDS011;58277;47.316;18.908;2023-12-20T12:51:04;23.47;;;10.97;;
70707;SDS011;58277;47.316;18.908;2023-12-20T12:53:27;20.83;;;10.75;;
70707;SDS011;58277;47.316;18.908;2023-12-20T12:55:50;21.60;;;9.68;;
70707;SDS011;58277;47.316;18.908;2023-12-20T12:58:13;16.27;;;7.90;;
70707;SDS011;58277;47.316;18.908;2023-12-20T13:00:36;15.00;;;7.10;;
70707;SDS011;58277;47.316;18.908;2023-12-20T13:02:59;14.73;;;6.67;;
70707;SDS011;58277;47.316;18.908;2023-12-20T13:05:21;14.55;;;6.60;;
70707;SDS011;58277;47.316;18.908;2023-12-20T13:07:45;15.88;;;7.40;;
70707;SDS011;58277;47.316;18.908;2023-12-20T13:10:09;14.10;;;6.65;;
70707;SDS011;58277;47.316;18.908;2023-12-20T13:12:33;12.77;;;6.28;;
70707;SDS011;58277;47.316;18.908;2023-12-20T13:14:56;12.47;;;6.10;;
70707;SDS011;58277;47.316;18.908;2023-12-20T13:17:19;13.77;;;6.80;;
70707;SDS011;58277;47.316;18.908;2023-12-20T13:19:42;12.48;;;6.20;;
70707;SDS011;58277;47.316;18.908;2023-12-20T13:22:06;11.90;;;5.75;;
70707;SDS011;58277;47.316;18.908;2023-12-20T13:24:29;12.35;;;5.80;;
70707;SDS011;58277;47.316;18.908;2023-12-20T13:26:52;12.67;;;6.03;;
70707;SDS011;58277;47.316;18.908;2023-12-20T13:29:17;12.65;;;5.75;;
70707;SDS011;58277;47.316;18.908;2023-12-20T13:31:40;13.90;;;6.30;;
70707;SDS011;58277;47.316;18.908;2023-12-20T13:34:03;14.30;;;6.22;;
70707;SDS011;58277;47.316;18.908;2023-12-20T13:36:27;12.63;;;6.15;;
70707;SDS011;58277;47.316;18.908;2023-12-20T13:38:50;16.17;;;7.43;;
70707;SDS011;58277;47.316;18.908;2023-12-20T13:41:13;15.55;;;7.00;;
70707;SDS011;58277;47.316;18.908;2023-12-20T13:43:36;14.50;;;7.38;;
70707;SDS011;58277;47.316;18.908;2023-12-20T13:45:59;12.90;;;6.70;;
70707;SDS011;58277;47.316;18.908;2023-12-20T13:48:22;16.17;;;7.68;;
70707;SDS011;58277;47.316;18.908;2023-12-20T13:50:46;16.23;;;7.13;;
70707;SDS011;58277;47.316;18.908;2023-12-20T13:53:08;15.35;;;6.60;;